Time;durP1;ratioP1;P1;durP2;ratioP2;P2;SDS_P1;SDS_P2;PMS_P1;PMS_P2;Temp;Humidity;BMP_temperature;BMP_pressure;BME280_temperature;BME280_humidity;BME280_pressure;Samples;Min_cycle;Max_cycle;Signal;HPM_P1;HPM_P2
2021/09/01 00:00:04;;;;;;;;;;;;;;;13.65;95.90;98620.31;2179954;81;20095;-84
2021/09/01 00:03:07;;;;;;;;;;;;;;;13.65;96.03;98624.69;2190092;81;20122;-86
2021/09/01 00:06:07;;;;;;;;;;;;;;;13.63;96.46;98626.00;2179978;82;20091;-85
2021/09/01 00:09:08;;;;;;;;;;;;;;;13.62;96.52;98633.44;2180059;81;20175;-85
2021/09/01 00:12:08;;;;;;;;;;;;;;;13.60;96.56;98629.08;2179747;81;20098;-85
2021/09/01 00:15:09;;;;;;;;;;;;;;;13.58;96.77;98642.19;2179533;81;20397;-85
2021/09/01 00:18:09;;;;;;;;;;;;;;;13.58;96.65;98636.08;2179574;81;20127;-85
2021/09/01 00:21:10;;;;;;;;;;;;;;;13.56;96.68;98634.77;2179878;81;20115;-85
2021/09/01 00:24:10;;;;;;;;;;;;;;;13.56;96.53;98626.03;2180050;81;20083;-84
2021/09/01 00:27:11;;;;;;;;;;;;;;;13.54;96.62;98633.91;2179835;81;20091;-85
2021/09/01 00:30:12;;;;;;;;;;;;;;;13.53;96.90;98644.40;2179911;81;20127;-84
2021/09/01 00:33:12;;;;;;;;;;;;;;;13.50;96.99;98643.09;2179749;81;20083;-85
2021/09/01 00:36:13;;;;;;;;;;;;;;;13.48;97.47;98640.92;2179460;82;20491;-87
2021/09/01 00:39:14;;;;;;;;;;;;;;;13.46;97.38;98640.05;2176917;82;20098;-84
2021/09/01 00:42:14;;;;;;;;;;;;;;;13.43;97.44;98645.30;2169558;81;20091;-84
2021/09/01 00:45:15;;;;;;;;;;;;;;;13.42;97.26;98640.94;2169358;81;20103;-84
2021/09/01 00:48:15;;;;;;;;;;;;;;;13.41;97.35;98646.62;2169322;82;20083;-85
2021/09/01 00:51:16;;;;;;;;;;;;;;;13.38;97.96;98648.81;2169620;82;20091;-85
2021/09/01 00:54:16;;;;;;;;;;;;;;;13.37;98.01;98644.87;2169560;81;20106;-85
2021/09/01 00:57:17;;;;;;;;;;;;;;;13.36;97.95;98644.01;2169779;81;20144;-85
2021/09/01 01:00:29;;;;;;;;;;;;;;;13.35;97.49;98648.81;2169682;82;20087;-85
2021/09/01 01:03:20;;;;;;;;;;;;;;;13.34;97.66;98658.00;2167139;82;20095;-85
2021/09/01 01:06:21;;;;;;;;;;;;;;;13.32;97.82;98660.63;2169696;81;20361;-85
2021/09/01 01:09:21;;;;;;;;;;;;;;;13.31;97.51;98651.45;2169611;81;20360;-86
2021/09/01 01:12:22;;;;;;;;;;;;;;;13.30;97.73;98660.19;2169709;81;20372;-87
2021/09/01 01:15:22;;;;;;;;;;;;;;;13.27;97.82;98654.95;2169535;82;20376;-86
2021/09/01 01:18:23;;;;;;;;;;;;;;;13.24;97.85;98653.21;2169346;81;20123;-85
2021/09/01 01:21:23;;;;;;;;;;;;;;;13.23;97.70;98652.78;2169583;81;20091;-85
2021/09/01 01:24:24;;;;;;;;;;;;;;;13.23;97.77;98665.01;2169628;81;20080;-85
2021/09/01 01:27:24;;;;;;;;;;;;;;;13.20;97.86;98656.71;2169719;81;20083;-86
2021/09/01 01:30:25;;;;;;;;;;;;;;;13.19;97.82;98657.59;2169788;82;20087;-86
2021/09/01 01:33:25;;;;;;;;;;;;;;;13.18;97.90;98658.46;2169576;81;20099;-85
2021/09/01 01:36:25;;;;;;;;;;;;;;;13.17;98.01;98663.27;2169380;82;20111;-85
2021/09/01 01:39:26;;;;;;;;;;;;;;;13.17;98.03;98666.33;2171662;81;20102;-84
2021/09/01 01:42:26;;;;;;;;;;;;;;;13.17;97.96;98672.44;2179990;81;20098;-86
2021/09/01 01:45:27;;;;;;;;;;;;;;;13.16;97.98;98678.53;2180056;82;20099;-85
2021/09/01 01:48:27;;;;;;;;;;;;;;;13.15;97.90;98671.54;2180077;81;20352;-85
2021/09/01 01:51:28;;;;;;;;;;;;;;;13.17;97.92;98677.69;2180043;82;20384;-86
2021/09/01 01:54:28;;;;;;;;;;;;;;;13.17;97.83;98678.99;2180073;81;20341;-85
2021/09/01 01:57:29;;;;;;;;;;;;;;;13.17;98.00;98686.86;2179923;81;20112;-85
2021/09/01 02:00:29;;;;;;;;;;;;;;;13.14;97.93;98685.52;2179798;82;20393;-85
2021/09/01 02:03:30;;;;;;;;;;;;;;;13.13;98.11;98683.77;2180160;81;20377;-87
2021/09/01 02:06:30;;;;;;;;;;;;;;;13.11;98.06;98678.97;2180118;81;20403;-85
2021/09/01 02:09:31;;;;;;;;;;;;;;;13.11;98.08;98689.45;2180067;81;20356;-84
2021/09/01 02:12:32;;;;;;;;;;;;;;;13.10;98.24;98683.77;2180002;82;20088;-86
2021/09/01 02:15:35;;;;;;;;;;;;;;;13.11;98.01;98686.83;2179951;82;20095;-85
2021/09/01 02:18:36;;;;;;;;;;;;;;;13.11;98.13;98693.81;2179882;81;20098;-84
2021/09/01 02:21:37;;;;;;;;;;;;;;;13.09;98.01;98691.20;2179663;81;20345;-83
2021/09/01 02:24:37;;;;;;;;;;;;;;;13.08;98.17;98703.43;2179905;81;20095;-85
2021/09/01 02:27:38;;;;;;;;;;;;;;;13.08;98.15;98706.48;2179899;82;20091;-85
2021/09/01 02:30:38;;;;;;;;;;;;;;;13.08;98.32;98709.11;2179968;81;20110;-84
2021/09/01 02:33:39;;;;;;;;;;;;;;;13.07;98.18;98710.85;2179648;81;20079;-85
2021/09/01 02:36:39;;;;;;;;;;;;;;;13.08;98.13;98718.28;2179646;81;20087;-85
2021/09/01 02:39:40;;;;;;;;;;;;;;;13.05;98.37;98712.60;2179904;81;20118;-85
2021/09/01 02:42:40;;;;;;;;;;;;;;;13.05;98.36;98717.84;2180061;81;20368;-84
2021/09/01 02:45:41;;;;;;;;;;;;;;;13.03;98.51;98718.28;2179941;81;20091;-85
2021/09/01 02:48:41;;;;;;;;;;;;;;;13.05;98.43;98722.20;2180107;82;20095;-86
2021/09/01 02:51:42;;;;;;;;;;;;;;;13.04;98.60;98719.16;2179970;82;20103;-83
2021/09/01 02:54:43;;;;;;;;;;;;;;;13.05;98.57;98725.70;2180004;82;20145;-85
2021/09/01 02:57:43;;;;;;;;;;;;;;;13.06;98.54;98723.95;2180233;82;20091;-85
2021/09/01 03:00:44;;;;;;;;;;;;;;;13.06;98.80;98722.64;2180239;81;20124;-79
2021/09/01 03:03:44;;;;;;;;;;;;;;;13.06;98.49;98730.50;2180525;81;20105;-85
2021/09/01 03:06:45;;;;;;;;;;;;;;;13.06;98.59;98731.38;2179840;81;20099;-85
2021/09/01 03:09:46;;;;;;;;;;;;;;;13.07;98.48;98731.81;2179860;81;20168;-84
2021/09/01 03:12:46;;;;;;;;;;;;;;;13.08;98.53;98729.63;2179858;82;20103;-85
2021/09/01 03:15:47;;;;;;;;;;;;;;;13.07;98.52;98731.81;2179923;81;20094;-85
2021/09/01 03:18:47;;;;;;;;;;;;;;;13.05;98.73;98737.93;2179859;81;20103;-83
2021/09/01 03:21:47;;;;;;;;;;;;;;;13.05;98.70;98741.42;2179792;81;20087;-84
2021/09/01 03:24:48;;;;;;;;;;;;;;;13.05;98.77;98737.93;2180173;82;20143;-85
2021/09/01 03:27:49;;;;;;;;;;;;;;;13.02;98.89;98738.80;2179859;81;20079;-85
2021/09/01 03:30:49;;;;;;;;;;;;;;;13.02;99.05;98734.00;2179486;81;20082;-85
2021/09/01 03:33:49;;;;;;;;;;;;;;;13.01;98.87;98738.80;2179805;81;20103;-84
2021/09/01 03:36:50;;;;;;;;;;;;;;;13.01;98.81;98747.97;2180038;82;20087;-84
2021/09/01 03:39:50;;;;;;;;;;;;;;;13.02;98.80;98749.28;2179543;81;20126;-85
2021/09/01 03:42:54;;;;;;;;;;;;;;;13.01;98.73;98758.02;2180045;81;20079;-84
2021/09/01 03:45:55;;;;;;;;;;;;;;;13.16;100.00;98753.22;2179966;81;20143;-84
2021/09/01 03:48:55;;;;;;;;;;;;;;;13.26;98.04;98757.62;2180214;81;20115;-85
2021/09/01 03:51:56;;;;;;;;;;;;;;;13.13;97.98;98761.08;2180096;81;20128;-83
2021/09/01 03:54:56;;;;;;;;;;;;;;;13.05;98.34;98765.01;2179766;81;20091;-84
2021/09/01 03:57:57;;;;;;;;;;;;;;;13.02;98.44;98764.13;2179644;81;20175;-85
2021/09/01 04:00:57;;;;;;;;;;;;;;;12.98;98.55;98772.83;2180090;81;20119;-85
2021/09/01 04:04:00;;;;;;;;;;;;;;;12.96;98.59;98774.58;2179909;81;20122;-86
2021/09/01 04:07:00;;;;;;;;;;;;;;;12.96;98.33;98775.88;2179784;81;20436;-81
2021/09/01 04:10:01;;;;;;;;;;;;;;;13.12;100.00;98773.75;2178913;81;20103;-80
2021/09/01 04:13:01;;;;;;;;;;;;;;;13.71;100.00;98778.11;2179566;81;20091;-85
2021/09/01 04:16:02;;;;;;;;;;;;;;;13.70;94.85;98775.92;2179431;81;20116;-85
2021/09/01 04:19:02;;;;;;;;;;;;;;;13.42;95.45;98791.25;2179658;81;20119;-85
2021/09/01 04:22:03;;;;;;;;;;;;;;;13.24;96.23;98789.95;2179380;82;20376;-85
2021/09/01 04:25:03;;;;;;;;;;;;;;;13.12;96.82;98784.66;2179532;81;20114;-86
2021/09/01 04:28:04;;;;;;;;;;;;;;;13.05;97.31;98795.14;2179344;81;20115;-84
2021/09/01 04:31:04;;;;;;;;;;;;;;;13.01;97.50;98801.69;2179208;81;20091;-84
2021/09/01 04:34:05;;;;;;;;;;;;;;;12.99;97.61;98799.47;2178996;81;20091;-85
2021/09/01 04:37:05;;;;;;;;;;;;;;;12.97;97.73;98802.52;2179466;81;20099;-85
2021/09/01 04:40:06;;;;;;;;;;;;;;;12.97;97.68;98811.69;2178141;81;20159;-85
2021/09/01 04:43:06;;;;;;;;;;;;;;;12.96;97.69;98818.67;2169883;81;20095;-84
2021/09/01 04:46:07;;;;;;;;;;;;;;;12.94;97.83;98823.04;2169961;82;20080;-84
2021/09/01 04:49:09;;;;;;;;;;;;;;;12.91;97.85;98830.89;2170347;81;20107;-84
2021/09/01 04:52:09;;;;;;;;;;;;;;;12.91;98.04;98824.78;2169944;82;20132;-85
2021/09/01 04:55:10;;;;;;;;;;;;;;;12.90;97.83;98823.03;2170193;81;20384;-85
2021/09/01 04:58:11;;;;;;;;;;;;;;;12.91;97.77;98824.78;2169914;81;20144;-85
2021/09/01 05:01:12;;;;;;;;;;;;;;;12.91;97.58;98835.26;2169654;81;20096;-81
2021/09/01 05:04:12;;;;;;;;;;;;;;;12.92;97.62;98846.17;2168357;82;20114;-81
2021/09/01 05:07:13;;;;;;;;;;;;;;;12.91;97.73;98833.95;2168637;82;20095;-81
2021/09/01 05:10:13;;;;;;;;;;;;;;;12.93;97.53;98838.32;2169043;82;20147;-80
2021/09/01 05:13:14;;;;;;;;;;;;;;;12.95;97.46;98831.34;2169270;81;20079;-81
2021/09/01 05:16:14;;;;;;;;;;;;;;;13.00;97.60;98840.52;2169375;81;20140;-81
2021/09/01 05:19:15;;;;;;;;;;;;;;;13.01;97.48;98864.57;2169955;81;20098;-80
2021/09/01 05:22:15;;;;;;;;;;;;;;;12.99;97.19;98850.56;2170264;81;20131;-79
2021/09/01 05:25:16;;;;;;;;;;;;;;;13.00;97.43;98851.00;2169783;81;20136;-81
2021/09/01 05:28:17;;;;;;;;;;;;;;;13.02;97.35;98850.60;2169606;81;20374;-82
2021/09/01 05:31:17;;;;;;;;;;;;;;;13.03;97.25;98854.53;2169764;81;20370;-82
2021/09/01 05:34:18;;;;;;;;;;;;;;;13.06;97.04;98856.28;2169957;82;20412;-81
2021/09/01 05:37:18;;;;;;;;;;;;;;;13.06;97.14;98851.05;2169908;81;20432;-81
2021/09/01 05:40:19;;;;;;;;;;;;;;;13.06;97.08;98852.36;2168999;81;20401;-81
2021/09/01 05:43:19;;;;;;;;;;;;;;;13.08;97.14;98858.47;2169599;82;20116;-80
2021/09/01 05:46:20;;;;;;;;;;;;;;;13.11;97.01;98862.41;2169064;81;20091;-80
2021/09/01 05:49:20;;;;;;;;;;;;;;;13.14;97.22;98865.47;2168313;82;20088;-81
2021/09/01 05:52:21;;;;;;;;;;;;;;;13.11;97.04;98870.27;2168669;81;20083;-82
2021/09/01 05:55:21;;;;;;;;;;;;;;;13.13;97.14;98863.73;2169407;81;20429;-82
2021/09/01 05:58:22;;;;;;;;;;;;;;;13.14;96.95;98871.59;2169736;81;20131;-81
2021/09/01 06:01:22;;;;;;;;;;;;;;;13.14;97.17;98872.91;2169380;81;20376;-81
2021/09/01 06:04:23;;;;;;;;;;;;;;;13.13;97.19;98881.63;2168944;81;20444;-79
2021/09/01 06:07:23;;;;;;;;;;;;;;;13.14;97.13;98868.97;2168853;81;20095;-79
2021/09/01 06:10:25;;;;;;;;;;;;;;;13.17;97.32;98872.94;2168965;81;20083;-80
2021/09/01 06:13:26;;;;;;;;;;;;;;;13.21;97.14;98878.63;2168426;81;20124;-79
2021/09/01 06:16:26;;;;;;;;;;;;;;;13.25;97.06;98878.20;2169054;82;20087;-80
2021/09/01 06:19:27;;;;;;;;;;;;;;;13.24;97.18;98881.69;2169366;81;20104;-81
2021/09/01 06:22:27;;;;;;;;;;;;;;;13.25;97.57;98880.37;2167260;81;20133;-80
2021/09/01 06:25:28;;;;;;;;;;;;;;;13.29;97.05;98886.50;2167696;81;20349;-79
2021/09/01 06:28:28;;;;;;;;;;;;;;;13.34;96.97;98890.88;2168493;81;20088;-84
2021/09/01 06:31:35;;;;;;;;;;;;;;;13.37;96.95;98894.81;2168324;81;20372;-80
2021/09/01 06:34:31;;;;;;;;;;;;;;;13.39;97.00;98893.07;2167836;82;20211;-79
2021/09/01 06:37:32;;;;;;;;;;;;;;;13.43;97.01;98903.56;2169060;82;20091;-78
2021/09/01 06:40:32;;;;;;;;;;;;;;;13.42;97.07;98902.69;2168965;81;20087;-79
2021/09/01 06:43:33;;;;;;;;;;;;;;;13.43;97.07;98920.17;2168623;81;20096;-80
2021/09/01 06:46:33;;;;;;;;;;;;;;;13.43;96.90;98919.30;2168675;81;20087;-80
2021/09/01 06:49:34;;;;;;;;;;;;;;;13.39;96.99;98915.80;2169049;82;20106;-79
2021/09/01 06:52:34;;;;;;;;;;;;;;;13.39;97.19;98924.97;2168783;82;20095;-79
2021/09/01 06:55:35;;;;;;;;;;;;;;;13.41;97.00;98927.16;2168283;81;20570;-80
2021/09/01 06:58:36;;;;;;;;;;;;;;;13.44;96.88;98930.22;2168863;81;20350;-80
2021/09/01 07:01:36;;;;;;;;;;;;;;;13.44;96.63;98940.27;2169353;81;20382;-80
2021/09/01 07:04:37;;;;;;;;;;;;;;;13.47;96.35;98948.58;2169491;82;20361;-79
2021/09/01 07:07:37;;;;;;;;;;;;;;;13.48;96.39;98940.72;2169185;81;20566;-79
2021/09/01 07:10:38;;;;;;;;;;;;;;;13.53;96.45;98945.97;2168281;81;20099;-78
2021/09/01 07:13:38;;;;;;;;;;;;;;;13.64;95.51;98953.41;2168801;82;20107;-79
2021/09/01 07:16:41;;;;;;;;;;;;;;;13.76;94.89;98958.67;2168758;82;20083;-78
2021/09/01 07:19:42;;;;;;;;;;;;;;;13.85;94.37;98960.00;2169064;81;20115;-79
2021/09/01 07:22:42;;;;;;;;;;;;;;;13.99;93.16;98967.91;2169108;81;20377;-80
2021/09/01 07:25:43;;;;;;;;;;;;;;;14.23;91.84;98989.33;2169132;81;20079;-80
2021/09/01 07:28:43;;;;;;;;;;;;;;;14.30;90.95;98979.27;2169076;82;20115;-78
2021/09/01 07:31:44;;;;;;;;;;;;;;;14.31;91.37;98988.89;2169056;82;20127;-84
2021/09/01 07:34:44;;;;;;;;;;;;;;;14.29;91.04;98998.52;2169148;81;20087;-83
2021/09/01 07:37:45;;;;;;;;;;;;;;;14.29;91.28;98999.83;2169228;81;20148;-79
2021/09/01 07:40:45;;;;;;;;;;;;;;;14.34;91.09;99002.02;2169592;81;20096;-79
2021/09/01 07:43:46;;;;;;;;;;;;;;;14.30;90.89;99004.21;2178233;82;20091;-79
2021/09/01 07:46:46;;;;;;;;;;;;;;;14.20;91.00;99005.97;2179292;81;20087;-80
2021/09/01 07:49:47;;;;;;;;;;;;;;;14.13;91.58;99009.91;2179534;81;20345;-79
2021/09/01 07:52:47;;;;;;;;;;;;;;;14.09;91.73;99018.21;2178736;82;20103;-79
2021/09/01 07:55:48;;;;;;;;;;;;;;;14.06;91.58;99026.52;2178457;82;20091;-81
2021/09/01 07:58:48;;;;;;;;;;;;;;;14.00;90.81;99029.58;2179406;81;20094;-79
2021/09/01 08:01:49;;;;;;;;;;;;;;;14.03;91.46;99026.95;2178732;82;20091;-79
2021/09/01 08:04:50;;;;;;;;;;;;;;;14.06;91.04;99032.65;2179091;82;20111;-80
2021/09/01 08:07:50;;;;;;;;;;;;;;;14.12;90.71;99035.28;2179213;81;20124;-80
2021/09/01 08:10:51;;;;;;;;;;;;;;;14.25;90.87;99036.16;2179021;81;20098;-79
2021/09/01 08:13:51;;;;;;;;;;;;;;;14.34;90.30;99047.53;2178711;81;20083;-80
2021/09/01 08:16:52;;;;;;;;;;;;;;;14.46;89.57;99047.13;2179142;81;20083;-80
2021/09/01 08:19:52;;;;;;;;;;;;;;;14.45;89.60;99059.38;2179072;81;20091;-79
2021/09/01 08:22:53;;;;;;;;;;;;;;;14.44;89.78;99052.38;2179042;81;20099;-79
2021/09/01 08:25:53;;;;;;;;;;;;;;;14.43;90.04;99056.31;2178206;82;20119;-80
2021/09/01 08:28:54;;;;;;;;;;;;;;;14.56;88.62;99058.06;2178525;81;20090;-79
2021/09/01 08:31:54;;;;;;;;;;;;;;;14.63;88.46;99063.31;2178045;81;20091;-79
2021/09/01 08:34:55;;;;;;;;;;;;;;;14.71;88.78;99069.88;2177778;81;20087;-79
2021/09/01 08:37:55;;;;;;;;;;;;;;;14.73;88.44;99059.36;2178039;81;20095;-80
2021/09/01 08:40:56;;;;;;;;;;;;;;;14.78;88.67;99067.70;2177505;81;20103;-80
2021/09/01 08:43:56;;;;;;;;;;;;;;;14.82;88.32;99077.34;2169054;81;20123;-77
2021/09/01 08:46:57;;;;;;;;;;;;;;;14.77;87.77;99077.78;2169322;81;20098;-78
2021/09/01 08:49:57;;;;;;;;;;;;;;;14.75;87.10;99086.54;2168856;81;20125;-78
2021/09/01 08:52:58;;;;;;;;;;;;;;;14.78;86.67;99087.85;2168588;81;20414;-81
2021/09/01 08:55:58;;;;;;;;;;;;;;;14.84;87.30;99099.23;2168367;81;20099;-80
2021/09/01 08:58:59;;;;;;;;;;;;;;;14.91;85.98;99093.52;2168920;81;20091;-79
2021/09/01 09:01:59;;;;;;;;;;;;;;;14.93;85.73;99100.53;2169187;82;20099;-80
2021/09/01 09:05:00;;;;;;;;;;;;;;;15.04;85.25;99097.88;2169380;81;20091;-78
2021/09/01 09:08:00;;;;;;;;;;;;;;;15.09;85.17;99103.13;2169238;81;20353;-79
2021/09/01 09:11:01;;;;;;;;;;;;;;;15.27;83.83;99103.96;2169199;81;20397;-80
2021/09/01 09:14:01;;;;;;;;;;;;;;;15.46;82.92;99108.72;2168836;81;20361;-80
2021/09/01 09:17:02;;;;;;;;;;;;;;;15.70;83.91;99112.20;2168901;81;20083;-79
2021/09/01 09:20:04;;;;;;;;;;;;;;;15.76;81.15;99114.36;2169466;81;20112;-79
2021/09/01 09:23:06;;;;;;;;;;;;;;;16.03;82.20;99117.29;2169182;82;20124;-80
2021/09/01 09:26:06;;;;;;;;;;;;;;;16.22;81.30;99104.88;2168898;81;20398;-80
2021/09/01 09:29:07;;;;;;;;;;;;;;;16.41;80.43;99111.77;2168755;81;20096;-80
2021/09/01 09:32:07;;;;;;;;;;;;;;;16.51;79.24;99115.24;2169249;81;20199;-81
2021/09/01 09:35:08;;;;;;;;;;;;;;;16.51;79.43;99121.39;2169197;81;20079;-80
2021/09/01 09:38:08;;;;;;;;;;;;;;;16.42;78.17;99120.11;2168821;81;20099;-80
2021/09/01 09:41:09;;;;;;;;;;;;;;;16.39;79.60;99124.08;2169583;81;20095;-80
2021/09/01 09:44:12;;;;;;;;;;;;;;;16.35;77.38;99126.30;2179026;81;20110;-80
2021/09/01 09:47:11;;;;;;;;;;;;;;;16.36;77.38;99132.00;2179431;81;20090;-80
2021/09/01 09:50:12;;;;;;;;;;;;;;;16.45;77.38;99133.26;2179158;82;20082;-81
2021/09/01 09:53:13;;;;;;;;;;;;;;;16.67;77.37;99134.48;2179686;82;20393;-78
2021/09/01 09:56:13;;;;;;;;;;;;;;;16.68;75.85;99138.86;2179622;81;20352;-80
2021/09/01 09:59:14;;;;;;;;;;;;;;;16.83;76.10;99136.09;2179656;81;20131;-79
2021/09/01 10:02:15;;;;;;;;;;;;;;;17.06;75.53;99138.08;2179292;81;20106;-80
2021/09/01 10:05:15;;;;;;;;;;;;;;;17.22;74.92;99139.24;2178718;81;20095;-79
2021/09/01 10:08:16;;;;;;;;;;;;;;;17.26;75.35;99137.00;2178905;82;20098;-80
2021/09/01 10:11:16;;;;;;;;;;;;;;;17.09;72.31;99138.49;2178383;81;20091;-79
2021/09/01 10:14:17;;;;;;;;;;;;;;;17.15;73.42;99136.67;2178656;82;20094;-79
2021/09/01 10:17:17;;;;;;;;;;;;;;;17.27;71.75;99141.39;2178734;81;20120;-79
2021/09/01 10:20:18;;;;;;;;;;;;;;;17.28;72.37;99143.14;2178738;81;20087;-80
2021/09/01 10:23:18;;;;;;;;;;;;;;;17.15;73.28;99141.07;2178462;81;20099;-79
2021/09/01 10:26:19;;;;;;;;;;;;;;;16.95;73.45;99145.66;2179132;81;20122;-79
2021/09/01 10:29:19;;;;;;;;;;;;;;;16.82;73.39;99152.80;2178795;82;20083;-80
2021/09/01 10:32:20;;;;;;;;;;;;;;;16.76;72.41;99155.48;2179901;81;20106;-81
2021/09/01 10:35:20;;;;;;;;;;;;;;;16.90;71.95;99154.93;2180070;82;20106;-79
2021/09/01 10:38:21;;;;;;;;;;;;;;;16.98;71.56;99153.09;2180078;81;20103;-79
2021/09/01 10:41:21;;;;;;;;;;;;;;;17.15;72.02;99155.13;2178776;81;20094;-79
2021/09/01 10:44:22;;;;;;;;;;;;;;;17.32;70.92;99156.73;2178126;82;20091;-79
2021/09/01 10:47:22;;;;;;;;;;;;;;;17.44;70.11;99164.55;2179577;81;20091;-80
2021/09/01 10:50:23;;;;;;;;;;;;;;;17.63;70.13;99160.81;2179438;82;20098;-80
2021/09/01 10:53:24;;;;;;;;;;;;;;;17.84;69.97;99159.72;2179441;82;20162;-84
2021/09/01 10:56:25;;;;;;;;;;;;;;;18.04;67.88;99164.30;2180082;82;20131;-83
2021/09/01 10:59:25;;;;;;;;;;;;;;;18.14;69.17;99170.33;2179686;82;20353;-82
2021/09/01 11:02:26;;;;;;;;;;;;;;;18.26;67.96;99170.20;2179510;81;20356;-78
2021/09/01 11:05:26;;;;;;;;;;;;;;;18.35;64.52;99170.52;2179525;82;20123;-80
2021/09/01 11:08:27;;;;;;;;;;;;;;;18.36;62.82;99169.17;2178597;81;20083;-79
2021/09/01 11:11:27;;;;;;;;;;;;;;;18.55;63.98;99172.86;2178508;81;20091;-78
2021/09/01 11:14:31;;;;;;;;;;;;;;;18.54;64.48;99173.76;2178057;81;20098;-79
2021/09/01 11:17:31;;;;;;;;;;;;;;;18.02;65.21;99191.17;2178488;81;20103;-79
2021/09/01 11:20:31;;;;;;;;;;;;;;;17.65;66.55;99185.87;2178625;81;20090;-80
2021/09/01 11:23:35;;;;;;;;;;;;;;;17.44;66.09;99205.01;2179211;81;20087;-78
2021/09/01 11:26:35;;;;;;;;;;;;;;;17.53;66.67;99203.16;2178583;82;20090;-79
2021/09/01 11:29:36;;;;;;;;;;;;;;;17.85;64.69;99198.43;2178270;81;20356;-78
2021/09/01 11:32:36;;;;;;;;;;;;;;;17.81;63.81;99209.48;2178862;81;20083;-79
2021/09/01 11:35:37;;;;;;;;;;;;;;;17.95;65.26;99201.84;2178841;81;20107;-78
2021/09/01 11:38:37;;;;;;;;;;;;;;;18.40;64.37;99205.23;2178411;82;20091;-78
2021/09/01 11:41:38;;;;;;;;;;;;;;;18.66;63.11;99198.27;2178247;81;20095;-78
2021/09/01 11:44:38;;;;;;;;;;;;;;;19.18;61.65;99205.85;2178551;81;20099;-80
2021/09/01 11:47:39;;;;;;;;;;;;;;;19.07;60.28;99200.30;2178991;81;20094;-82
2021/09/01 11:50:39;;;;;;;;;;;;;;;18.64;61.21;99209.32;2179414;82;20320;-80
2021/09/01 11:53:42;;;;;;;;;;;;;;;18.66;63.16;99210.17;2179669;81;20102;-82
2021/09/01 11:56:42;;;;;;;;;;;;;;;18.74;61.68;99194.19;2179128;81;20090;-80
2021/09/01 11:59:43;;;;;;;;;;;;;;;18.75;58.31;99205.19;2179688;81;20099;-82
2021/09/01 12:02:43;;;;;;;;;;;;;;;18.88;58.81;99200.59;2180398;81;20087;-82
2021/09/01 12:05:44;;;;;;;;;;;;;;;19.25;59.70;99198.23;2179790;81;20083;-82
2021/09/01 12:08:44;;;;;;;;;;;;;;;19.49;57.18;99199.56;2179223;81;20090;-81
2021/09/01 12:11:45;;;;;;;;;;;;;;;19.68;55.61;99193.92;2179864;81;20349;-83
2021/09/01 12:14:45;;;;;;;;;;;;;;;19.82;57.78;99191.45;2180204;82;20380;-83
2021/09/01 12:17:46;;;;;;;;;;;;;;;19.69;55.46;99200.97;2180176;82;20416;-83
2021/09/01 12:20:46;;;;;;;;;;;;;;;19.35;55.20;99218.34;2180333;81;20102;-82
2021/09/01 12:23:47;;;;;;;;;;;;;;;19.29;56.75;99207.41;2179465;81;20405;-80
2021/09/01 12:26:47;;;;;;;;;;;;;;;19.46;56.40;99223.00;2179838;81;20084;-82
2021/09/01 12:29:48;;;;;;;;;;;;;;;19.33;55.82;99217.50;2179907;81;20095;-82
2021/09/01 12:32:48;;;;;;;;;;;;;;;19.09;54.86;99213.05;2179817;81;20094;-82
2021/09/01 12:35:49;;;;;;;;;;;;;;;18.85;56.74;99217.83;2179118;81;20098;-82
2021/09/01 12:38:49;;;;;;;;;;;;;;;18.54;56.48;99230.59;2179149;81;20115;-82
2021/09/01 12:41:50;;;;;;;;;;;;;;;18.14;58.97;99223.17;2178715;81;20083;-82
2021/09/01 12:44:50;;;;;;;;;;;;;;;17.87;60.09;99224.82;2169238;81;20095;-81
2021/09/01 12:47:51;;;;;;;;;;;;;;;17.61;61.36;99240.91;2168994;81;20083;-83
2021/09/01 12:50:52;;;;;;;;;;;;;;;17.35;62.38;99238.52;2169351;81;20098;-84
2021/09/01 12:53:52;;;;;;;;;;;;;;;17.13;63.78;99241.31;2169468;82;20111;-82
2021/09/01 12:56:53;;;;;;;;;;;;;;;16.94;64.07;99243.67;2170076;81;20082;-82
2021/09/01 12:59:53;;;;;;;;;;;;;;;16.84;65.27;99251.21;2169299;81;20115;-82
2021/09/01 13:02:54;;;;;;;;;;;;;;;16.74;65.75;99252.16;2169386;81;20095;-82
2021/09/01 13:05:55;;;;;;;;;;;;;;;16.61;66.65;99259.67;2169158;81;20231;-82
2021/09/01 13:08:55;;;;;;;;;;;;;;;16.44;67.67;99261.05;2169414;81;20092;-82
2021/09/01 13:11:56;;;;;;;;;;;;;;;16.28;68.97;99264.64;2169083;81;20112;-82
2021/09/01 13:14:56;;;;;;;;;;;;;;;16.14;71.62;99267.34;2169414;81;20122;-82
2021/09/01 13:17:57;;;;;;;;;;;;;;;15.96;72.28;99272.66;2169846;81;20096;-83
2021/09/01 13:20:57;;;;;;;;;;;;;;;15.91;73.54;99276.63;2170233;81;20087;-82
2021/09/01 13:23:58;;;;;;;;;;;;;;;15.91;73.89;99266.97;2169936;81;20107;-80
2021/09/01 13:26:58;;;;;;;;;;;;;;;15.96;74.19;99263.45;2170651;81;20124;-83
2021/09/01 13:29:59;;;;;;;;;;;;;;;16.10;74.42;99269.55;2170923;81;20128;-83
2021/09/01 13:32:59;;;;;;;;;;;;;;;16.34;73.18;99268.13;2170517;81;20122;-81
2021/09/01 13:36:01;;;;;;;;;;;;;;;16.54;72.86;99265.42;2170528;81;20091;-83
2021/09/01 13:39:01;;;;;;;;;;;;;;;16.71;71.61;99266.23;2170300;81;20139;-83
2021/09/01 13:42:02;;;;;;;;;;;;;;;16.87;71.46;99272.28;2170703;81;20091;-83
2021/09/01 13:45:04;;;;;;;;;;;;;;;16.98;70.54;99266.49;2181066;81;20082;-83
2021/09/01 13:48:04;;;;;;;;;;;;;;;17.23;70.87;99267.17;2181673;81;20135;-83
2021/09/01 13:51:05;;;;;;;;;;;;;;;17.52;69.42;99268.27;2181249;82;20106;-81
2021/09/01 13:54:05;;;;;;;;;;;;;;;17.94;69.40;99250.27;2181460;82;20140;-81
2021/09/01 13:57:06;;;;;;;;;;;;;;;18.32;67.54;99257.77;2180698;81;20083;-81
2021/09/01 14:00:07;;;;;;;;;;;;;;;18.53;66.24;99247.35;2180653;81;20091;-79
2021/09/01 14:03:10;;;;;;;;;;;;;;;18.61;65.30;99239.77;2180104;82;20345;-80
2021/09/01 14:06:10;;;;;;;;;;;;;;;18.54;64.88;99243.36;2179556;81;20135;-82
2021/09/01 14:09:10;;;;;;;;;;;;;;;18.53;64.39;99257.48;2179898;82;20079;-80
2021/09/01 14:12:11;;;;;;;;;;;;;;;18.72;64.12;99247.55;2180072;81;20098;-80
2021/09/01 14:15:11;;;;;;;;;;;;;;;18.97;63.12;99263.48;2179481;81;20106;-80
2021/09/01 14:21:14;;;;;;;;;;;;;;;19.19;61.71;99252.58;2150868;82;20087;-81
2021/09/01 14:24:17;;;;;;;;;;;;;;;19.16;61.27;99250.86;2191046;80;20087;-81
2021/09/01 14:27:17;;;;;;;;;;;;;;;18.98;62.43;99248.03;2180884;81;20083;-81
2021/09/01 14:30:18;;;;;;;;;;;;;;;18.86;61.76;99250.86;2181129;81;20095;-81
2021/09/01 14:33:18;;;;;;;;;;;;;;;18.69;61.80;99236.57;2180453;81;20107;-80
2021/09/01 14:36:19;;;;;;;;;;;;;;;18.59;62.28;99242.85;2180784;81;20123;-80
2021/09/01 14:39:22;;;;;;;;;;;;;;;18.39;62.66;99244.45;2181033;81;20099;-81
2021/09/01 14:42:23;;;;;;;;;;;;;;;18.41;63.41;99251.03;2180625;81;20156;-81
2021/09/01 14:45:23;;;;;;;;;;;;;;;18.49;63.37;99243.00;2179795;82;20091;-83
2021/09/01 14:48:24;;;;;;;;;;;;;;;18.56;62.11;99234.09;2180635;81;20091;-82
2021/09/01 14:51:24;;;;;;;;;;;;;;;18.42;62.19;99239.13;2180330;81;20119;-81
2021/09/01 14:54:25;;;;;;;;;;;;;;;18.11;62.25;99243.02;2180613;82;20114;-81
2021/09/01 14:57:28;;;;;;;;;;;;;;;17.92;63.19;99237.08;2180753;81;20090;-82
2021/09/01 15:00:29;;;;;;;;;;;;;;;17.86;64.05;99231.87;2180428;81;20426;-80
2021/09/01 15:03:29;;;;;;;;;;;;;;;17.92;64.59;99248.09;2180601;81;20131;-81
2021/09/01 15:06:29;;;;;;;;;;;;;;;18.06;63.91;99248.36;2180239;81;20127;-81
2021/09/01 15:09:30;;;;;;;;;;;;;;;18.32;64.06;99232.66;2180574;81;20087;-81
2021/09/01 15:12:30;;;;;;;;;;;;;;;18.55;63.36;99235.86;2180968;81;20115;-82
2021/09/01 15:15:31;;;;;;;;;;;;;;;18.80;62.15;99229.80;2180413;82;20114;-81
2021/09/01 15:18:31;;;;;;;;;;;;;;;19.04;61.24;99221.92;2180216;82;20091;-81
2021/09/01 15:21:32;;;;;;;;;;;;;;;19.13;61.37;99228.88;2180607;81;20094;-80
2021/09/01 15:24:32;;;;;;;;;;;;;;;19.13;61.26;99223.58;2181061;81;20088;-82
2021/09/01 15:27:39;;;;;;;;;;;;;;;19.22;60.44;99222.10;2180991;81;20087;-81
2021/09/01 15:30:39;;;;;;;;;;;;;;;19.16;60.47;99226.17;2181061;81;20116;-81
2021/09/01 15:33:40;;;;;;;;;;;;;;;19.02;60.39;99215.34;2180634;82;20095;-80
2021/09/01 15:36:40;;;;;;;;;;;;;;;18.92;60.66;99229.61;2180687;82;20083;-81
2021/09/01 15:39:41;;;;;;;;;;;;;;;18.89;60.35;99227.02;2180675;81;20091;-82